sensor_id;sensor_type;location;lat;lon;timestamp;temperature;humidity
70762;DHT22;58360;0.000;0.000;2023-02-13T00:02:08;7.20;90.10
70762;DHT22;58360;0.000;0.000;2023-02-13T00:04:34;7.10;90.00
70762;DHT22;58360;0.000;0.000;2023-02-13T00:07:00;7.10;90.10
70762;DHT22;58360;0.000;0.000;2023-02-13T00:09:26;7.10;90.10
70762;DHT22;58360;0.000;0.000;2023-02-13T00:11:51;7.10;90.00
70762;DHT22;58360;0.000;0.000;2023-02-13T00:14:17;7.20;90.00
70762;DHT22;58360;0.000;0.000;2023-02-13T00:16:42;7.10;90.00
70762;DHT22;58360;0.000;0.000;2023-02-13T00:19:08;7.10;90.00
70762;DHT22;58360;0.000;0.000;2023-02-13T00:21:34;7.10;90.00
70762;DHT22;58360;0.000;0.000;2023-02-13T00:23:59;7.00;90.10
70762;DHT22;58360;0.000;0.000;2023-02-13T00:26:25;7.00;90.20
70762;DHT22;58360;0.000;0.000;2023-02-13T00:28:51;7.00;90.30
70762;DHT22;58360;0.000;0.000;2023-02-13T00:31:19;6.90;90.30
70762;DHT22;58360;0.000;0.000;2023-02-13T00:33:44;6.90;90.40
70762;DHT22;58360;0.000;0.000;2023-02-13T00:38:37;6.80;90.30
70762;DHT22;58360;0.000;0.000;2023-02-13T00:41:04;6.80;90.30
70762;DHT22;58360;0.000;0.000;2023-02-13T00:43:30;6.80;90.30
70762;DHT22;58360;0.000;0.000;2023-02-13T00:45:56;6.80;90.40
70762;DHT22;58360;0.000;0.000;2023-02-13T00:48:23;6.80;90.40
70762;DHT22;58360;0.000;0.000;2023-02-13T00:50:49;6.70;90.50
70762;DHT22;58360;0.000;0.000;2023-02-13T00:53:20;6.70;90.60
70762;DHT22;58360;0.000;0.000;2023-02-13T00:55:47;6.70;90.80
70762;DHT22;58360;0.000;0.000;2023-02-13T00:58:13;6.70;90.90
70762;DHT22;58360;0.000;0.000;2023-02-13T01:00:39;6.80;90.80
70762;DHT22;58360;0.000;0.000;2023-02-13T01:03:04;6.70;90.80
70762;DHT22;58360;0.000;0.000;2023-02-13T01:05:30;6.60;90.90
70762;DHT22;58360;0.000;0.000;2023-02-13T01:07:56;6.60;90.90
70762;DHT22;58360;0.000;0.000;2023-02-13T01:10:22;6.50;90.90
70762;DHT22;58360;0.000;0.000;2023-02-13T01:12:48;6.50;90.90
70762;DHT22;58360;0.000;0.000;2023-02-13T01:15:13;6.40;90.70
70762;DHT22;58360;0.000;0.000;2023-02-13T01:17:39;6.40;90.70
70762;DHT22;58360;0.000;0.000;2023-02-13T01:20:09;6.40;90.60
70762;DHT22;58360;0.000;0.000;2023-02-13T01:22:35;6.40;90.60
70762;DHT22;58360;0.000;0.000;2023-02-13T01:25:01;6.40;90.50
70762;DHT22;58360;0.000;0.000;2023-02-13T01:27:27;6.40;90.50
70762;DHT22;58360;0.000;0.000;2023-02-13T01:29:53;6.30;90.60
70762;DHT22;58360;0.000;0.000;2023-02-13T01:32:19;6.30;90.50
70762;DHT22;58360;0.000;0.000;2023-02-13T01:34:45;6.30;90.50
70762;DHT22;58360;0.000;0.000;2023-02-13T01:37:11;6.30;90.40
70762;DHT22;58360;0.000;0.000;2023-02-13T01:39:37;6.30;90.20
70762;DHT22;58360;0.000;0.000;2023-02-13T01:42:03;6.20;90.50
70762;DHT22;58360;0.000;0.000;2023-02-13T01:44:49;6.20;90.40
70762;DHT22;58360;0.000;0.000;2023-02-13T01:53:02;5.80;91.00
70762;DHT22;58360;0.000;0.000;2023-02-13T01:55:30;5.80;90.90
70762;DHT22;58360;0.000;0.000;2023-02-13T01:58:01;5.70;90.90
70762;DHT22;58360;0.000;0.000;2023-02-13T02:00:29;5.70;91.10
70762;DHT22;58360;0.000;0.000;2023-02-13T02:03:07;5.70;91.20
70762;DHT22;58360;0.000;0.000;2023-02-13T02:05:35;5.60;91.10
70762;DHT22;58360;0.000;0.000;2023-02-13T02:08:03;5.60;91.00
70762;DHT22;58360;0.000;0.000;2023-02-13T02:10:31;5.60;91.10
70762;DHT22;58360;0.000;0.000;2023-02-13T02:15:32;5.60;91.10
70762;DHT22;58360;0.000;0.000;2023-02-13T02:17:58;5.60;91.00
70762;DHT22;58360;0.000;0.000;2023-02-13T02:23:46;5.40;91.20
70762;DHT22;58360;0.000;0.000;2023-02-13T02:29:11;5.20;91.60
70762;DHT22;58360;0.000;0.000;2023-02-13T02:34:50;5.30;91.00
70762;DHT22;58360;0.000;0.000;2023-02-13T02:37:43;5.10;91.20
70762;DHT22;58360;0.000;0.000;2023-02-13T02:54:00;5.10;91.00
70762;DHT22;58360;0.000;0.000;2023-02-13T02:56:39;5.00;90.90
70762;DHT22;58360;0.000;0.000;2023-02-13T02:59:11;4.90;90.80
70762;DHT22;58360;0.000;0.000;2023-02-13T03:01:56;5.00;90.30
70762;DHT22;58360;0.000;0.000;2023-02-13T03:04:45;4.80;90.70
70762;DHT22;58360;0.000;0.000;2023-02-13T03:07:31;4.60;90.90
70762;DHT22;58360;0.000;0.000;2023-02-13T03:10:00;4.60;91.00
70762;DHT22;58360;0.000;0.000;2023-02-13T03:15:38;4.50;91.40
70762;DHT22;58360;0.000;0.000;2023-02-13T03:18:24;4.50;91.40
70762;DHT22;58360;0.000;0.000;2023-02-13T03:21:36;4.50;91.40
70762;DHT22;58360;0.000;0.000;2023-02-13T03:24:32;4.60;91.40
70762;DHT22;58360;0.000;0.000;2023-02-13T03:33:01;4.50;91.80
70762;DHT22;58360;0.000;0.000;2023-02-13T03:38:45;4.50;91.40
70762;DHT22;58360;0.000;0.000;2023-02-13T03:43:59;4.50;91.50
70762;DHT22;58360;0.000;0.000;2023-02-13T03:46:30;4.50;91.40
70762;DHT22;58360;0.000;0.000;2023-02-13T03:49:01;4.40;91.50
70762;DHT22;58360;0.000;0.000;2023-02-13T03:54:32;4.30;91.70
70762;DHT22;58360;0.000;0.000;2023-02-13T03:57:19;4.30;91.70
70762;DHT22;58360;0.000;0.000;2023-02-13T04:00:09;4.20;91.70
70762;DHT22;58360;0.000;0.000;2023-02-13T04:03:06;4.20;92.00
70762;DHT22;58360;0.000;0.000;2023-02-13T04:05:31;4.30;92.20
70762;DHT22;58360;0.000;0.000;2023-02-13T04:08:01;4.20;92.40
70762;DHT22;58360;0.000;0.000;2023-02-13T04:10:30;4.30;92.30
70762;DHT22;58360;0.000;0.000;2023-02-13T04:13:09;4.40;92.30
70762;DHT22;58360;0.000;0.000;2023-02-13T04:15:55;4.30;92.30
70762;DHT22;58360;0.000;0.000;2023-02-13T04:18:26;4.20;92.80
70762;DHT22;58360;0.000;0.000;2023-02-13T04:20:53;4.20;93.00
70762;DHT22;58360;0.000;0.000;2023-02-13T04:23:19;4.10;93.10
70762;DHT22;58360;0.000;0.000;2023-02-13T04:25:51;4.20;93.20
70762;DHT22;58360;0.000;0.000;2023-02-13T04:28:17;4.20;93.20
70762;DHT22;58360;0.000;0.000;2023-02-13T04:30:43;4.20;93.20
70762;DHT22;58360;0.000;0.000;2023-02-13T04:33:09;4.20;93.30
70762;DHT22;58360;0.000;0.000;2023-02-13T04:35:34;4.20;93.30
70762;DHT22;58360;0.000;0.000;2023-02-13T04:38:01;4.10;93.40
70762;DHT22;58360;0.000;0.000;2023-02-13T04:40:26;4.10;93.20
70762;DHT22;58360;0.000;0.000;2023-02-13T04:42:52;4.10;93.20
70762;DHT22;58360;0.000;0.000;2023-02-13T04:45:18;4.10;93.20
70762;DHT22;58360;0.000;0.000;2023-02-13T04:47:52;4.00;93.30
70762;DHT22;58360;0.000;0.000;2023-02-13T04:50:18;4.00;93.20
70762;DHT22;58360;0.000;0.000;2023-02-13T04:52:44;4.00;93.40
70762;DHT22;58360;0.000;0.000;2023-02-13T04:55:10;4.00;93.20
70762;DHT22;58360;0.000;0.000;2023-02-13T04:57:36;4.10;93.20
70762;DHT22;58360;0.000;0.000;2023-02-13T05:00:02;4.20;93.30
70762;DHT22;58360;0.000;0.000;2023-02-13T05:02:29;4.30;92.80
70762;DHT22;58360;0.000;0.000;2023-02-13T05:04:55;4.30;92.30
70762;DHT22;58360;0.000;0.000;2023-02-13T05:07:21;4.50;92.00
70762;DHT22;58360;0.000;0.000;2023-02-13T05:09:46;4.30;92.30
70762;DHT22;58360;0.000;0.000;2023-02-13T05:12:12;4.30;92.30
70762;DHT22;58360;0.000;0.000;2023-02-13T05:14:38;4.30;92.40
70762;DHT22;58360;0.000;0.000;2023-02-13T05:17:03;4.20;92.50
70762;DHT22;58360;0.000;0.000;2023-02-13T05:19:29;4.30;92.00
70762;DHT22;58360;0.000;0.000;2023-02-13T05:21:55;4.20;92.10
70762;DHT22;58360;0.000;0.000;2023-02-13T05:24:38;4.30;92.00
70762;DHT22;58360;0.000;0.000;2023-02-13T05:27:04;4.20;91.90
70762;DHT22;58360;0.000;0.000;2023-02-13T05:29:30;4.00;92.60
70762;DHT22;58360;0.000;0.000;2023-02-13T05:31:56;3.80;92.60
70762;DHT22;58360;0.000;0.000;2023-02-13T05:34:24;3.70;92.90
70762;DHT22;58360;0.000;0.000;2023-02-13T05:36:50;3.80;93.00
70762;DHT22;58360;0.000;0.000;2023-02-13T05:39:16;4.00;92.20
70762;DHT22;58360;0.000;0.000;2023-02-13T05:41:43;3.90;92.00
70762;DHT22;58360;0.000;0.000;2023-02-13T05:44:09;3.80;92.40
70762;DHT22;58360;0.000;0.000;2023-02-13T05:46:36;3.60;92.30
70762;DHT22;58360;0.000;0.000;2023-02-13T05:49:03;3.60;92.40
70762;DHT22;58360;0.000;0.000;2023-02-13T05:51:29;3.60;92.60
70762;DHT22;58360;0.000;0.000;2023-02-13T05:53:54;3.60;92.50
70762;DHT22;58360;0.000;0.000;2023-02-13T05:56:20;3.50;92.40
70762;DHT22;58360;0.000;0.000;2023-02-13T05:58:46;3.40;92.60
70762;DHT22;58360;0.000;0.000;2023-02-13T06:01:12;3.30;92.60
70762;DHT22;58360;0.000;0.000;2023-02-13T06:03:38;3.30;92.30
70762;DHT22;58360;0.000;0.000;2023-02-13T06:06:04;3.30;92.30
70762;DHT22;58360;0.000;0.000;2023-02-13T06:08:30;3.30;92.40
70762;DHT22;58360;0.000;0.000;2023-02-13T06:10:56;3.20;91.90
70762;DHT22;58360;0.000;0.000;2023-02-13T06:13:22;3.20;92.00
70762;DHT22;58360;0.000;0.000;2023-02-13T06:15:47;3.20;91.90
70762;DHT22;58360;0.000;0.000;2023-02-13T06:18:15;3.30;91.30
70762;DHT22;58360;0.000;0.000;2023-02-13T06:20:41;3.30;91.40
70762;DHT22;58360;0.000;0.000;2023-02-13T06:23:07;3.20;91.30
70762;DHT22;58360;0.000;0.000;2023-02-13T06:25:36;3.20;91.30
70762;DHT22;58360;0.000;0.000;2023-02-13T06:28:03;3.10;91.60
70762;DHT22;58360;0.000;0.000;2023-02-13T06:30:29;3.20;91.20
70762;DHT22;58360;0.000;0.000;2023-02-13T06:32:55;3.20;90.60
70762;DHT22;58360;0.000;0.000;2023-02-13T06:35:21;3.10;90.70
70762;DHT22;58360;0.000;0.000;2023-02-13T06:37:46;2.90;91.00
70762;DHT22;58360;0.000;0.000;2023-02-13T06:40:13;2.90;91.10
70762;DHT22;58360;0.000;0.000;2023-02-13T06:42:41;2.70;91.50
70762;DHT22;58360;0.000;0.000;2023-02-13T06:45:08;2.80;91.50
70762;DHT22;58360;0.000;0.000;2023-02-13T06:47:33;2.70;91.70
70762;DHT22;58360;0.000;0.000;2023-02-13T06:49:59;2.80;91.40
70762;DHT22;58360;0.000;0.000;2023-02-13T06:52:25;2.80;91.30
70762;DHT22;58360;0.000;0.000;2023-02-13T06:54:51;2.80;91.40
70762;DHT22;58360;0.000;0.000;2023-02-13T06:57:17;2.80;91.40
70762;DHT22;58360;0.000;0.000;2023-02-13T06:59:42;2.80;91.10
70762;DHT22;58360;0.000;0.000;2023-02-13T07:02:12;2.70;91.20
70762;DHT22;58360;0.000;0.000;2023-02-13T07:04:38;2.60;91.50
70762;DHT22;58360;0.000;0.000;2023-02-13T07:07:03;2.50;91.60
70762;DHT22;58360;0.000;0.000;2023-02-13T07:09:30;2.30;92.00
70762;DHT22;58360;0.000;0.000;2023-02-13T07:11:56;2.30;92.10
70762;DHT22;58360;0.000;0.000;2023-02-13T07:14:22;2.20;92.30
70762;DHT22;58360;0.000;0.000;2023-02-13T07:16:48;2.00;92.60
70762;DHT22;58360;0.000;0.000;2023-02-13T07:19:13;1.90;93.00
70762;DHT22;58360;0.000;0.000;2023-02-13T07:21:40;1.90;93.20
70762;DHT22;58360;0.000;0.000;2023-02-13T07:24:06;2.00;93.30
70762;DHT22;58360;0.000;0.000;2023-02-13T07:26:32;1.90;93.00
70762;DHT22;58360;0.000;0.000;2023-02-13T07:28:57;2.10;92.90
70762;DHT22;58360;0.000;0.000;2023-02-13T07:31:23;2.00;92.90
70762;DHT22;58360;0.000;0.000;2023-02-13T07:33:49;1.90;93.10
70762;DHT22;58360;0.000;0.000;2023-02-13T07:36:15;2.00;93.00
70762;DHT22;58360;0.000;0.000;2023-02-13T07:38:40;2.00;93.00
70762;DHT22;58360;0.000;0.000;2023-02-13T07:41:06;2.00;92.90
70762;DHT22;58360;0.000;0.000;2023-02-13T07:43:32;2.00;92.90
70762;DHT22;58360;0.000;0.000;2023-02-13T07:45:59;2.10;92.70
70762;DHT22;58360;0.000;0.000;2023-02-13T07:48:25;2.30;92.50
70762;DHT22;58360;0.000;0.000;2023-02-13T07:50:58;2.50;91.70
70762;DHT22;58360;0.000;0.000;2023-02-13T07:53:24;2.30;91.70
70762;DHT22;58360;0.000;0.000;2023-02-13T07:55:49;2.30;92.10
70762;DHT22;58360;0.000;0.000;2023-02-13T07:58:15;2.30;91.90
70762;DHT22;58360;0.000;0.000;2023-02-13T08:00:41;2.40;91.90
70762;DHT22;58360;0.000;0.000;2023-02-13T08:03:06;2.30;92.20
70762;DHT22;58360;0.000;0.000;2023-02-13T08:05:32;2.30;92.40
70762;DHT22;58360;0.000;0.000;2023-02-13T08:07:58;2.30;92.40
70762;DHT22;58360;0.000;0.000;2023-02-13T08:10:24;2.40;92.40
70762;DHT22;58360;0.000;0.000;2023-02-13T08:13:10;2.60;92.10
70762;DHT22;58360;0.000;0.000;2023-02-13T08:15:37;2.80;91.80
70762;DHT22;58360;0.000;0.000;2023-02-13T08:18:03;3.00;90.90
70762;DHT22;58360;0.000;0.000;2023-02-13T08:20:29;3.10;90.90
70762;DHT22;58360;0.000;0.000;2023-02-13T08:23:02;3.10;90.70
70762;DHT22;58360;0.000;0.000;2023-02-13T08:25:28;3.10;90.90
70762;DHT22;58360;0.000;0.000;2023-02-13T08:27:54;3.30;91.00
70762;DHT22;58360;0.000;0.000;2023-02-13T08:30:20;3.40;90.80
70762;DHT22;58360;0.000;0.000;2023-02-13T08:32:45;3.40;90.80
70762;DHT22;58360;0.000;0.000;2023-02-13T08:35:11;3.60;90.50
70762;DHT22;58360;0.000;0.000;2023-02-13T08:37:37;3.70;90.50
70762;DHT22;58360;0.000;0.000;2023-02-13T08:40:02;3.70;90.50
70762;DHT22;58360;0.000;0.000;2023-02-13T08:42:28;3.90;90.30
70762;DHT22;58360;0.000;0.000;2023-02-13T08:44:54;3.80;90.40
70762;DHT22;58360;0.000;0.000;2023-02-13T08:47:19;3.80;90.40
70762;DHT22;58360;0.000;0.000;2023-02-13T08:49:45;3.90;90.10
70762;DHT22;58360;0.000;0.000;2023-02-13T08:52:11;3.90;90.30
70762;DHT22;58360;0.000;0.000;2023-02-13T08:54:36;3.90;90.40
70762;DHT22;58360;0.000;0.000;2023-02-13T08:57:03;4.00;90.30
70762;DHT22;58360;0.000;0.000;2023-02-13T08:59:28;4.00;90.60
70762;DHT22;58360;0.000;0.000;2023-02-13T09:01:55;4.00;90.60
70762;DHT22;58360;0.000;0.000;2023-02-13T09:04:21;4.10;90.30
70762;DHT22;58360;0.000;0.000;2023-02-13T09:06:46;4.20;90.40
70762;DHT22;58360;0.000;0.000;2023-02-13T09:09:12;4.30;90.40
70762;DHT22;58360;0.000;0.000;2023-02-13T09:11:38;4.40;90.30
70762;DHT22;58360;0.000;0.000;2023-02-13T09:14:03;4.50;90.20
70762;DHT22;58360;0.000;0.000;2023-02-13T09:16:29;4.50;90.00
70762;DHT22;58360;0.000;0.000;2023-02-13T09:18:55;4.60;89.80
70762;DHT22;58360;0.000;0.000;2023-02-13T09:21:21;4.70;89.60
70762;DHT22;58360;0.000;0.000;2023-02-13T09:23:48;4.80;89.80
70762;DHT22;58360;0.000;0.000;2023-02-13T09:26:15;4.80;90.00
70762;DHT22;58360;0.000;0.000;2023-02-13T09:28:41;4.80;90.00
70762;DHT22;58360;0.000;0.000;2023-02-13T09:31:08;4.90;90.20
70762;DHT22;58360;0.000;0.000;2023-02-13T09:33:35;4.90;90.10
70762;DHT22;58360;0.000;0.000;2023-02-13T09:38:31;5.10;90.10
70762;DHT22;58360;0.000;0.000;2023-02-13T09:41:00;5.20;90.10
70762;DHT22;58360;0.000;0.000;2023-02-13T09:43:29;5.20;90.30
70762;DHT22;58360;0.000;0.000;2023-02-13T09:46:34;5.30;90.20
70762;DHT22;58360;0.000;0.000;2023-02-13T09:48:56;5.40;90.20
70762;DHT22;58360;0.000;0.000;2023-02-13T09:51:25;5.50;90.00
70762;DHT22;58360;0.000;0.000;2023-02-13T09:54:04;5.60;90.20
70762;DHT22;58360;0.000;0.000;2023-02-13T09:56:56;5.70;90.40
70762;DHT22;58360;0.000;0.000;2023-02-13T10:04:57;6.00;90.30
70762;DHT22;58360;0.000;0.000;2023-02-13T10:07:28;6.00;90.20
70762;DHT22;58360;0.000;0.000;2023-02-13T10:15:40;6.40;90.30
70762;DHT22;58360;0.000;0.000;2023-02-13T10:18:18;6.60;90.20
70762;DHT22;58360;0.000;0.000;2023-02-13T10:20:52;6.60;90.00
70762;DHT22;58360;0.000;0.000;2023-02-13T10:26:11;6.90;89.60
70762;DHT22;58360;0.000;0.000;2023-02-13T10:28:56;7.10;89.00
70762;DHT22;58360;0.000;0.000;2023-02-13T10:31:42;7.10;88.80
70762;DHT22;58360;0.000;0.000;2023-02-13T10:34:16;7.30;88.40
70762;DHT22;58360;0.000;0.000;2023-02-13T10:36:46;7.40;88.20
70762;DHT22;58360;0.000;0.000;2023-02-13T10:39:22;7.50;88.20
70762;DHT22;58360;0.000;0.000;2023-02-13T10:44:50;7.50;88.20
70762;DHT22;58360;0.000;0.000;2023-02-13T10:48:05;7.50;88.20
70762;DHT22;58360;0.000;0.000;2023-02-13T10:50:25;7.60;88.20
70762;DHT22;58360;0.000;0.000;2023-02-13T10:59:33;8.00;87.60
70762;DHT22;58360;0.000;0.000;2023-02-13T11:04:09;8.30;86.30
70762;DHT22;58360;0.000;0.000;2023-02-13T11:06:40;8.30;86.30
70762;DHT22;58360;0.000;0.000;2023-02-13T11:09:07;8.30;86.30
70762;DHT22;58360;0.000;0.000;2023-02-13T11:11:37;8.40;86.80
70762;DHT22;58360;0.000;0.000;2023-02-13T11:14:18;8.40;87.00
70762;DHT22;58360;0.000;0.000;2023-02-13T11:16:55;8.50;86.30
70762;DHT22;58360;0.000;0.000;2023-02-13T11:19:33;8.70;85.90
70762;DHT22;58360;0.000;0.000;2023-02-13T11:24:30;8.90;85.30
70762;DHT22;58360;0.000;0.000;2023-02-13T11:27:00;9.10;84.30
70762;DHT22;58360;0.000;0.000;2023-02-13T11:29:27;9.20;82.30
70762;DHT22;58360;0.000;0.000;2023-02-13T11:34:40;9.40;81.70
70762;DHT22;58360;0.000;0.000;2023-02-13T11:39:38;9.50;81.70
70762;DHT22;58360;0.000;0.000;2023-02-13T11:42:18;9.50;80.50
70762;DHT22;58360;0.000;0.000;2023-02-13T11:44:53;9.60;80.50
70762;DHT22;58360;0.000;0.000;2023-02-13T11:47:41;9.70;80.40
70762;DHT22;58360;0.000;0.000;2023-02-13T11:50:31;9.90;79.40
70762;DHT22;58360;0.000;0.000;2023-02-13T11:53:06;9.90;78.90
70762;DHT22;58360;0.000;0.000;2023-02-13T11:55:37;9.90;78.70
70762;DHT22;58360;0.000;0.000;2023-02-13T11:58:22;10.00;78.30
70762;DHT22;58360;0.000;0.000;2023-02-13T12:00:48;10.00;77.80
70762;DHT22;58360;0.000;0.000;2023-02-13T12:08:38;10.20;77.70
70762;DHT22;58360;0.000;0.000;2023-02-13T12:14:32;10.40;77.00
70762;DHT22;58360;0.000;0.000;2023-02-13T12:17:07;10.50;76.10
70762;DHT22;58360;0.000;0.000;2023-02-13T12:19:42;10.60;76.00
70762;DHT22;58360;0.000;0.000;2023-02-13T12:27:36;10.90;74.30
70762;DHT22;58360;0.000;0.000;2023-02-13T12:30:33;10.90;74.40
70762;DHT22;58360;0.000;0.000;2023-02-13T12:44:36;10.80;74.70
70762;DHT22;58360;0.000;0.000;2023-02-13T12:47:13;10.70;74.00
70762;DHT22;58360;0.000;0.000;2023-02-13T12:52:57;10.80;74.90
70762;DHT22;58360;0.000;0.000;2023-02-13T13:09:57;11.40;72.10
70762;DHT22;58360;0.000;0.000;2023-02-13T13:23:07;11.70;71.50
70762;DHT22;58360;0.000;0.000;2023-02-13T13:28:41;11.70;71.50
70762;DHT22;58360;0.000;0.000;2023-02-13T13:31:10;11.60;71.70
70762;DHT22;58360;0.000;0.000;2023-02-13T13:33:39;11.50;72.10
70762;DHT22;58360;0.000;0.000;2023-02-13T13:36:20;11.50;72.40
70762;DHT22;58360;0.000;0.000;2023-02-13T13:44:09;11.60;71.80
70762;DHT22;58360;0.000;0.000;2023-02-13T13:46:58;11.60;71.50
70762;DHT22;58360;0.000;0.000;2023-02-13T13:49:52;11.70;71.20
70762;DHT22;58360;0.000;0.000;2023-02-13T13:52:33;11.80;71.40
70762;DHT22;58360;0.000;0.000;2023-02-13T13:55:00;11.90;70.80
70762;DHT22;58360;0.000;0.000;2023-02-13T14:02:48;11.70;71.90
70762;DHT22;58360;0.000;0.000;2023-02-13T14:07:49;11.90;70.70
70762;DHT22;58360;0.000;0.000;2023-02-13T14:13:10;12.10;69.90
70762;DHT22;58360;0.000;0.000;2023-02-13T14:31:32;12.20;70.30
70762;DHT22;58360;0.000;0.000;2023-02-13T14:36:33;12.20;69.90
70762;DHT22;58360;0.000;0.000;2023-02-13T14:44:41;12.30;69.30
70762;DHT22;58360;0.000;0.000;2023-02-13T14:49:53;12.40;68.70
70762;DHT22;58360;0.000;0.000;2023-02-13T14:52:25;12.50;68.30
70762;DHT22;58360;0.000;0.000;2023-02-13T14:55:05;12.70;67.30
70762;DHT22;58360;0.000;0.000;2023-02-13T14:57:48;12.80;66.70
70762;DHT22;58360;0.000;0.000;2023-02-13T15:02:55;12.60;67.40
70762;DHT22;58360;0.000;0.000;2023-02-13T15:05:29;12.50;67.50
70762;DHT22;58360;0.000;0.000;2023-02-13T15:08:19;12.50;67.70
70762;DHT22;58360;0.000;0.000;2023-02-13T15:10:50;12.60;67.70
70762;DHT22;58360;0.000;0.000;2023-02-13T15:13:19;12.40;68.40
70762;DHT22;58360;0.000;0.000;2023-02-13T15:15:52;12.60;67.90
70762;DHT22;58360;0.000;0.000;2023-02-13T15:18:23;12.60;67.80
70762;DHT22;58360;0.000;0.000;2023-02-13T15:20:50;12.60;68.30
70762;DHT22;58360;0.000;0.000;2023-02-13T15:23:28;12.50;68.90
70762;DHT22;58360;0.000;0.000;2023-02-13T15:26:02;12.50;68.90
70762;DHT22;58360;0.000;0.000;2023-02-13T15:28:29;12.50;69.10
70762;DHT22;58360;0.000;0.000;2023-02-13T15:33:46;12.40;69.50
70762;DHT22;58360;0.000;0.000;2023-02-13T15:36:22;12.50;68.80
70762;DHT22;58360;0.000;0.000;2023-02-13T15:39:04;12.50;68.60
70762;DHT22;58360;0.000;0.000;2023-02-13T15:41:32;12.50;68.70
70762;DHT22;58360;0.000;0.000;2023-02-13T15:44:00;12.60;68.60
70762;DHT22;58360;0.000;0.000;2023-02-13T15:46:32;12.50;68.70
70762;DHT22;58360;0.000;0.000;2023-02-13T15:49:03;12.50;68.70
70762;DHT22;58360;0.000;0.000;2023-02-13T15:51:30;12.40;69.40
70762;DHT22;58360;0.000;0.000;2023-02-13T15:53:58;12.30;70.00
70762;DHT22;58360;0.000;0.000;2023-02-13T15:56:25;12.20;70.10
70762;DHT22;58360;0.000;0.000;2023-02-13T15:58:51;12.20;70.60
70762;DHT22;58360;0.000;0.000;2023-02-13T16:01:19;12.10;70.90
70762;DHT22;58360;0.000;0.000;2023-02-13T16:03:50;12.10;70.80
70762;DHT22;58360;0.000;0.000;2023-02-13T16:06:19;12.20;70.30
70762;DHT22;58360;0.000;0.000;2023-02-13T16:08:53;12.30;70.30
70762;DHT22;58360;0.000;0.000;2023-02-13T16:11:26;12.10;70.40
70762;DHT22;58360;0.000;0.000;2023-02-13T16:14:12;12.00;71.60
70762;DHT22;58360;0.000;0.000;2023-02-13T16:17:04;11.90;71.30
70762;DHT22;58360;0.000;0.000;2023-02-13T16:20:04;11.80;71.60
70762;DHT22;58360;0.000;0.000;2023-02-13T16:25:26;11.70;72.00
70762;DHT22;58360;0.000;0.000;2023-02-13T16:27:54;11.70;71.80
70762;DHT22;58360;0.000;0.000;2023-02-13T16:33:19;11.60;72.40
70762;DHT22;58360;0.000;0.000;2023-02-13T16:35:49;11.60;72.10
70762;DHT22;58360;0.000;0.000;2023-02-13T16:38:34;11.60;72.60
70762;DHT22;58360;0.000;0.000;2023-02-13T16:41:05;11.50;72.70
70762;DHT22;58360;0.000;0.000;2023-02-13T16:43:52;11.40;73.20
70762;DHT22;58360;0.000;0.000;2023-02-13T16:46:21;11.30;73.60
70762;DHT22;58360;0.000;0.000;2023-02-13T16:56:43;10.60;76.00
70762;DHT22;58360;0.000;0.000;2023-02-13T17:07:30;10.40;77.10
70762;DHT22;58360;0.000;0.000;2023-02-13T17:10:01;10.30;77.50
70762;DHT22;58360;0.000;0.000;2023-02-13T17:12:29;10.20;78.10
70762;DHT22;58360;0.000;0.000;2023-02-13T17:14:57;10.30;77.60
70762;DHT22;58360;0.000;0.000;2023-02-13T17:17:27;10.40;77.10
70762;DHT22;58360;0.000;0.000;2023-02-13T17:19:53;10.20;77.60
70762;DHT22;58360;0.000;0.000;2023-02-13T17:22:40;10.00;78.50
70762;DHT22;58360;0.000;0.000;2023-02-13T17:25:10;10.00;78.90
70762;DHT22;58360;0.000;0.000;2023-02-13T17:27:39;9.90;79.20
70762;DHT22;58360;0.000;0.000;2023-02-13T17:30:05;9.70;79.80
70762;DHT22;58360;0.000;0.000;2023-02-13T17:32:31;9.50;80.30
70762;DHT22;58360;0.000;0.000;2023-02-13T17:34:57;9.40;80.80
70762;DHT22;58360;0.000;0.000;2023-02-13T17:37:25;9.40;81.30
70762;DHT22;58360;0.000;0.000;2023-02-13T17:39:51;9.40;81.50
70762;DHT22;58360;0.000;0.000;2023-02-13T17:42:26;9.40;81.70
70762;DHT22;58360;0.000;0.000;2023-02-13T17:44:55;9.40;81.40
70762;DHT22;58360;0.000;0.000;2023-02-13T17:47:21;9.40;81.40
70762;DHT22;58360;0.000;0.000;2023-02-13T17:49:47;9.40;81.40
70762;DHT22;58360;0.000;0.000;2023-02-13T17:52:17;9.40;81.40
70762;DHT22;58360;0.000;0.000;2023-02-13T17:54:44;9.40;81.50
70762;DHT22;58360;0.000;0.000;2023-02-13T17:57:11;9.20;82.10
70762;DHT22;58360;0.000;0.000;2023-02-13T17:59:37;9.10;82.60
70762;DHT22;58360;0.000;0.000;2023-02-13T18:02:02;9.10;82.80
70762;DHT22;58360;0.000;0.000;2023-02-13T18:04:28;9.10;82.80
70762;DHT22;58360;0.000;0.000;2023-02-13T18:06:54;9.20;82.50
70762;DHT22;58360;0.000;0.000;2023-02-13T18:09:20;9.20;82.30
70762;DHT22;58360;0.000;0.000;2023-02-13T18:11:48;9.20;82.20
70762;DHT22;58360;0.000;0.000;2023-02-13T18:14:14;9.20;82.20
70762;DHT22;58360;0.000;0.000;2023-02-13T18:16:40;9.00;82.60
70762;DHT22;58360;0.000;0.000;2023-02-13T18:19:06;9.00;82.80
70762;DHT22;58360;0.000;0.000;2023-02-13T18:21:32;9.00;82.70
70762;DHT22;58360;0.000;0.000;2023-02-13T18:23:57;9.00;82.60
70762;DHT22;58360;0.000;0.000;2023-02-13T18:26:23;8.80;83.10
70762;DHT22;58360;0.000;0.000;2023-02-13T18:28:49;8.70;83.50
70762;DHT22;58360;0.000;0.000;2023-02-13T18:31:17;8.60;84.10
70762;DHT22;58360;0.000;0.000;2023-02-13T18:33:43;8.50;84.40
70762;DHT22;58360;0.000;0.000;2023-02-13T18:36:09;8.40;84.90
70762;DHT22;58360;0.000;0.000;2023-02-13T18:38:35;8.40;84.90
70762;DHT22;58360;0.000;0.000;2023-02-13T18:41:01;8.30;85.20
70762;DHT22;58360;0.000;0.000;2023-02-13T18:43:27;8.20;85.50
70762;DHT22;58360;0.000;0.000;2023-02-13T18:45:52;8.20;85.40
70762;DHT22;58360;0.000;0.000;2023-02-13T18:48:18;8.10;85.60
70762;DHT22;58360;0.000;0.000;2023-02-13T18:50:44;8.10;85.70
70762;DHT22;58360;0.000;0.000;2023-02-13T18:53:10;8.10;85.90
70762;DHT22;58360;0.000;0.000;2023-02-13T18:55:36;8.20;85.80
70762;DHT22;58360;0.000;0.000;2023-02-13T18:58:01;8.10;85.70
70762;DHT22;58360;0.000;0.000;2023-02-13T19:00:28;8.10;85.80
70762;DHT22;58360;0.000;0.000;2023-02-13T19:02:53;8.00;85.80
70762;DHT22;58360;0.000;0.000;2023-02-13T19:05:20;7.90;86.00
70762;DHT22;58360;0.000;0.000;2023-02-13T19:07:47;7.90;86.30
70762;DHT22;58360;0.000;0.000;2023-02-13T19:10:12;7.80;86.70
70762;DHT22;58360;0.000;0.000;2023-02-13T19:12:40;7.70;86.70
70762;DHT22;58360;0.000;0.000;2023-02-13T19:15:07;7.80;87.00
70762;DHT22;58360;0.000;0.000;2023-02-13T19:17:34;7.80;86.60
70762;DHT22;58360;0.000;0.000;2023-02-13T19:20:01;7.80;86.60
70762;DHT22;58360;0.000;0.000;2023-02-13T19:22:27;7.80;86.40
70762;DHT22;58360;0.000;0.000;2023-02-13T19:24:53;7.80;86.60
70762;DHT22;58360;0.000;0.000;2023-02-13T19:27:18;7.90;86.50
70762;DHT22;58360;0.000;0.000;2023-02-13T19:29:45;7.90;86.30
70762;DHT22;58360;0.000;0.000;2023-02-13T19:32:11;7.90;86.10
70762;DHT22;58360;0.000;0.000;2023-02-13T19:34:37;8.00;85.60
70762;DHT22;58360;0.000;0.000;2023-02-13T19:37:03;8.10;84.90
70762;DHT22;58360;0.000;0.000;2023-02-13T19:39:31;8.10;84.20
70762;DHT22;58360;0.000;0.000;2023-02-13T19:41:56;8.00;84.60
70762;DHT22;58360;0.000;0.000;2023-02-13T19:44:22;7.90;85.10
70762;DHT22;58360;0.000;0.000;2023-02-13T19:46:48;7.80;85.40
70762;DHT22;58360;0.000;0.000;2023-02-13T19:49:13;7.80;85.70
70762;DHT22;58360;0.000;0.000;2023-02-13T19:51:39;7.60;85.60